Fulton County Airport Brown Field
KFTY : now visible

Airfield :











YOU CAN JOIN US ON...

 
LOGIN :

Register | Disclaimer

   EN    FR    IT 

 









Legend :    VFR   Marginal VFR   IFR   Intensive IFR   Very Intensive IFR
Visi :
Ceiling :
>= 8 km
>= 3000ft
5 to 8 km
1000 to 3000 ft
1500m to 5 km
500 to 1000 ft
800 to 1500m
200 to 500 ft
< 800m
< 200 ft
Symbols :   Thunderstorms  Fog  Heavy snow  Heavy precipitations  Wind > 20 kt






- Airport Elevation : 841 ft


KFTY - Fulton County Brown Field

CURRENT METAR :
  • 212353Z 19005KT 10SM CLR 21/17 A3006 RMK AO2 SLP173 60000 T02060172 10239 20206 55011

EXPIRED METARs :
  • 212253Z 18006KT 10SM CLR 22/17 A3005 RMK AO2 SLP171 T02170172
  • 212153Z 20006KT 10SM FEW030 BKN070 23/17 A3008 RMK AO2 SLP180 T02280172

TAF KFTY
Valid from the 22 at 00:00 until the 23 at 00:00 UTC


212336Z 2200/2224 20006KT P6SM SCT040
FM220200 23008KT P6SM VCSH BKN030
TEMPO 2203/2206 VRB10G20KT 4SM SHRA BKN020
FM220700 26005KT P6SM SCT015 BKN025
FM220900 29005KT P6SM SCT020 BKN035
FM221300 30006KT P6SM SCT045
FM221500 30009KT P6SM SKC
KZTL FIR / North America



MET'MAP, your aeronautical weather chart ! - Copyright ORBIFLY December 2007 - Disclaimer

ORBIFLY MET'MAP TEAM :

Programming & Development : Alexandra Zaïnal
Concept & original design : Baudouin d'Aumeries
Assistance for programming : Marc-Olivier Méhu
Technical & hardware support : Manuel Goepfert

Contact : metmap@orbifly.com




SOURCES & CREDITS :

   NOAA       Earth
Advisory